Packs Harbour, Canada
Current Conditions -  °F | °C
As of 2:00 PM on Sunday 21 Dec 2014 (Local Time) from CWCA Reporting Station
Few Clouds Few Clouds  
Wind Chill:   Ceiling: Unl
Heat Index: 19°   Visibility: 15mi
Dew Point:   Wind: 8mph
Humidity: 54%   Direction: 280°W
Pressure: 30.2"   Gusts: NA
Location:  53.87°N, 57°W
Report Text: CWCA 211800Z 28007KT 15SM FEW200 M07/M15 A3020 RMK CI0 SLP230
Loading
Personal Weather Stations






























Interactive Weather Map New forecast layout! Learn more

10-Day Weather Forecast

Advertisements
Track Severe Weather on mobile